Time;durP1;ratioP1;P1;durP2;ratioP2;P2;SDS_P1;SDS_P2;PMS_P1;PMS_P2;Temp;Humidity;BMP_temperature;BMP_pressure;BME280_temperature;BME280_humidity;BME280_pressure;Samples;Min_cycle;Max_cycle;Signal;HPM_P1;HPM_P2
2022/07/30 11:11:04;;;;;;;;;13.33;12.67;;;;;24.34;48.87;101609.91;5113822;27;45756;-70
2022/07/30 11:13:49;;;;;;;;;12.00;10.33;;;;;24.51;48.47;101606.47;5108723;27;45569;-70
2022/07/30 11:16:16;;;;;;;;;14.33;10.00;;;;;24.71;48.44;101608.03;5097721;27;45458;-70
2022/07/30 11:19:04;;;;;;;;;13.33;10.00;;;;;25.02;48.21;101606.81;5100254;27;45606;-70
2022/07/30 11:21:31;;;;;;;;;15.00;11.00;;;;;25.29;47.61;101602.22;5107536;27;45456;-70
2022/07/30 11:23:57;;;;;;;;;13.00;10.33;;;;;25.60;47.37;101599.06;5093683;27;45364;-71
2022/07/30 11:26:37;;;;;;;;;11.67;10.33;;;;;25.92;46.86;101593.94;5097797;27;45368;-71
2022/07/30 11:29:04;;;;;;;;;10.00;8.00;;;;;26.21;47.03;101586.34;5095081;27;45519;-71
2022/07/30 11:31:32;;;;;;;;;9.67;7.33;;;;;26.43;46.61;101585.75;5109617;27;46263;-71
2022/07/30 11:34:16;;;;;;;;;5.33;5.00;;;;;26.76;46.33;101587.63;5096153;27;45599;-70
2022/07/30 11:37:11;;;;;;;;;7.33;6.33;;;;;27.02;45.52;101591.25;5097781;27;46232;-70
2022/07/30 11:39:52;;;;;;;;;6.00;5.33;;;;;27.26;45.12;101589.50;5089311;27;45837;-70
2022/07/30 11:42:25;;;;;;;;;9.00;7.00;;;;;27.47;45.10;101587.03;5097496;27;46285;-72
2022/07/30 11:44:51;;;;;;;;;7.00;7.00;;;;;27.62;44.48;101586.34;5090580;27;45331;-70
2022/07/30 11:47:17;;;;;;;;;17.00;12.33;;;;;27.77;44.20;101577.44;5104818;27;45727;-71
2022/07/30 11:49:44;;;;;;;;;12.67;9.33;;;;;27.92;43.82;101583.00;5108868;27;45473;-73
2022/07/30 11:52:10;;;;;;;;;9.00;6.00;;;;;28.07;43.20;101581.19;5104219;27;46319;-70
2022/07/30 11:54:53;;;;;;;;;8.00;8.00;;;;;28.21;43.31;101576.88;5109777;27;45442;-70
2022/07/30 11:57:18;;;;;;;;;10.33;7.00;;;;;28.33;42.21;101571.00;5106155;27;45468;-72
2022/07/30 11:59:54;;;;;;;;;11.33;7.33;;;;;28.43;42.83;101579.81;5106294;27;45632;-70
2022/07/30 12:02:26;;;;;;;;;8.33;8.33;;;;;28.51;41.85;101578.91;5109049;27;46107;-72
2022/07/30 12:04:52;;;;;;;;;12.00;7.33;;;;;28.59;42.32;101580.72;5111465;27;45703;-72
2022/07/30 12:07:23;;;;;;;;;8.00;8.00;;;;;28.67;41.43;101586.13;5110070;27;45738;-71
2022/07/30 12:09:49;;;;;;;;;12.00;9.00;;;;;28.73;41.67;101573.63;5102534;27;45411;-72
2022/07/30 12:12:26;;;;;;;;;8.00;8.00;;;;;28.78;41.40;101563.81;5105761;27;54814;-72
2022/07/30 12:14:51;;;;;;;;;8.67;8.33;;;;;28.86;41.46;101575.72;5103292;27;45460;-73
2022/07/30 12:17:16;;;;;;;;;8.00;7.00;;;;;28.89;41.63;101576.22;5106867;27;45553;-72
2022/07/30 12:19:46;;;;;;;;;10.00;8.00;;;;;28.96;40.84;101584.53;5098316;27;45426;-72
2022/07/30 12:22:11;;;;;;;;;12.00;9.33;;;;;29.00;41.26;101574.94;5098542;27;46453;-72
2022/07/30 12:24:37;;;;;;;;;7.67;6.00;;;;;29.05;40.51;101564.28;5094519;27;45442;-72
2022/07/30 12:27:04;;;;;;;;;10.33;9.00;;;;;29.09;40.83;101572.94;5097177;27;45429;-73
2022/07/30 12:29:33;;;;;;;;;11.33;9.67;;;;;29.04;40.28;101546.19;5094114;27;45508;-72
2022/07/30 12:32:00;;;;;;;;;8.33;6.00;;;;;29.17;40.62;101566.56;5089064;27;46220;-73
2022/07/30 12:34:26;;;;;;;;;6.67;6.67;;;;;29.17;40.49;101552.88;5087574;27;45765;-72
2022/07/30 12:36:52;;;;;;;;;9.00;8.33;;;;;29.22;40.32;101557.81;5085008;27;45501;-73
2022/07/30 12:39:25;;;;;;;;;7.33;6.00;;;;;29.26;40.05;101559.97;5095163;27;45469;-72
2022/07/30 12:41:54;;;;;;;;;9.00;8.00;;;;;29.19;40.25;101545.34;5097328;27;45452;-72
2022/07/30 12:44:52;;;;;;;;;9.00;7.00;;;;;29.31;40.05;101557.50;5086901;27;45543;-73
2022/07/30 12:47:20;;;;;;;;;9.67;6.33;;;;;29.36;40.19;101561.56;5042408;28;45697;-73
2022/07/30 12:49:45;;;;;;;;;6.33;5.33;;;;;29.38;39.74;101559.50;5053001;28;45467;-73
2022/07/30 12:52:26;;;;;;;;;7.00;6.00;;;;;29.42;39.75;101560.84;5052383;28;46047;-72
2022/07/30 12:55:08;;;;;;;;;8.67;6.33;;;;;29.45;39.73;101566.75;5048126;28;45380;-72
2022/07/30 12:57:56;;;;;;;;;7.33;6.67;;;;;29.48;39.75;101561.94;5050818;28;45472;-72
2022/07/30 13:00:24;;;;;;;;;8.67;6.67;;;;;29.51;39.52;101561.59;5051703;28;45382;-73
2022/07/30 13:02:49;;;;;;;;;7.00;5.00;;;;;29.50;38.98;101558.00;5052387;28;46360;-72
2022/07/30 13:05:15;;;;;;;;;10.00;8.00;;;;;29.49;39.56;101550.81;5051593;28;45507;-73
2022/07/30 13:07:58;;;;;;;;;5.33;5.33;;;;;29.55;39.46;101544.59;5054042;28;45443;-73
2022/07/30 13:10:24;;;;;;;;;6.67;6.67;;;;;29.54;39.43;101534.72;5049486;28;45463;-72
2022/07/30 13:12:50;;;;;;;;;6.67;6.67;;;;;29.51;39.84;101539.72;5052586;28;45451;-72
2022/07/30 13:15:19;;;;;;;;;8.67;7.33;;;;;29.61;39.80;101543.00;5051739;28;45482;-72
2022/07/30 13:17:45;;;;;;;;;6.67;6.33;;;;;29.63;39.12;101551.03;5049583;28;45568;-72
2022/07/30 13:20:15;;;;;;;;;9.00;6.33;;;;;29.60;39.44;101538.59;5056178;28;45448;-72
2022/07/30 13:22:41;;;;;;;;;10.00;8.67;;;;;29.62;39.78;101541.97;5063936;27;46035;-72
2022/07/30 13:36:36;;;;;;;;;9.33;8.67;;;;;29.09;40.25;101526.50;5125655;27;45478;-73
2022/07/30 13:39:02;;;;;;;;;8.67;6.67;;;;;28.97;40.70;101528.84;5102614;27;45516;-73
2022/07/30 13:41:28;;;;;;;;;9.67;8.00;;;;;28.87;40.34;101522.78;5106596;27;45408;-71
2022/07/30 13:43:53;;;;;;;;;7.00;7.00;;;;;28.91;41.06;101532.31;5105026;27;45461;-72
2022/07/30 13:46:18;;;;;;;;;8.00;6.33;;;;;28.85;40.43;101517.50;5107063;27;45468;-73
2022/07/30 13:48:44;;;;;;;;;7.67;7.00;;;;;28.96;41.00;101521.69;5104586;27;45387;-72
2022/07/30 13:51:09;;;;;;;;;11.67;7.33;;;;;29.00;41.05;101517.53;5107663;27;45390;-73
2022/07/30 13:53:34;;;;;;;;;9.00;7.33;;;;;29.03;41.09;101517.19;5111497;27;45393;-72
2022/07/30 13:56:00;;;;;;;;;12.33;8.67;;;;;29.10;40.71;101511.78;5111830;27;45406;-72
2022/07/30 13:58:26;;;;;;;;;11.00;7.67;;;;;29.17;40.70;101511.88;5112043;27;45428;-72
2022/07/30 14:00:52;;;;;;;;;13.33;11.67;;;;;29.22;40.49;101514.06;5112071;27;45324;-71
2022/07/30 14:03:17;;;;;;;;;14.67;9.33;;;;;29.25;40.58;101514.53;5111676;27;45742;-70
2022/07/30 14:05:43;;;;;;;;;12.67;9.00;;;;;29.30;40.75;101509.34;5111580;27;46265;-70
2022/07/30 14:08:09;;;;;;;;;11.33;9.00;;;;;29.33;40.22;101502.66;5111695;27;45351;-71
2022/07/30 14:10:36;;;;;;;;;11.33;9.33;;;;;29.35;40.68;101497.00;5111355;27;45484;-71
2022/07/30 14:13:03;;;;;;;;;8.33;7.00;;;;;29.43;40.87;101510.56;5112048;27;45484;-72
2022/07/30 14:15:32;;;;;;;;;12.33;8.67;;;;;29.46;40.46;101502.81;5111576;27;46323;-71
2022/07/30 14:17:58;;;;;;;;;8.33;7.00;;;;;29.48;40.60;101494.44;5109462;27;45366;-71
2022/07/30 14:20:24;;;;;;;;;9.00;7.67;;;;;29.50;40.30;101497.00;5107556;27;45340;-72
2022/07/30 14:22:50;;;;;;;;;8.00;7.33;;;;;29.52;40.19;101497.66;5111718;27;45462;-71
2022/07/30 14:25:15;;;;;;;;;8.67;7.67;;;;;29.52;40.19;101486.72;5110328;27;45446;-72
2022/07/30 14:27:40;;;;;;;;;10.67;6.67;;;;;29.56;40.46;101490.78;5111595;27;45435;-72
2022/07/30 14:30:08;;;;;;;;;9.00;7.33;;;;;29.57;40.02;101481.53;5111975;27;45438;-71
2022/07/30 14:32:34;;;;;;;;;9.67;9.67;;;;;29.62;40.32;101492.72;5110954;27;45621;-71
2022/07/30 14:35:00;;;;;;;;;9.00;6.67;;;;;29.62;39.93;101490.00;5110889;27;46770;-72
2022/07/30 14:37:25;;;;;;;;;9.67;8.67;;;;;29.62;40.05;101492.72;5111305;27;45268;-72
2022/07/30 14:39:51;;;;;;;;;8.33;6.67;;;;;29.63;40.48;101486.22;5111299;27;45864;-72
2022/07/30 14:42:16;;;;;;;;;13.00;8.33;;;;;29.64;40.43;101487.06;5111093;27;45837;-70
2022/07/30 14:44:42;;;;;;;;;8.33;7.00;;;;;29.61;40.24;101482.84;5111577;27;45398;-72
2022/07/30 14:47:07;;;;;;;;;7.00;6.33;;;;;29.64;39.82;101473.41;5102453;27;45505;-72
2022/07/30 14:49:33;;;;;;;;;9.00;7.33;;;;;29.66;40.07;101474.91;5097705;27;45467;-72
2022/07/30 14:51:59;;;;;;;;;8.67;6.67;;;;;29.72;39.92;101474.13;5097549;27;45823;-72
2022/07/30 14:54:26;;;;;;;;;9.33;8.33;;;;;29.72;39.88;101473.28;5095240;27;47519;-72
2022/07/30 14:56:52;;;;;;;;;6.67;6.00;;;;;29.79;39.63;101478.84;5096310;27;45457;-72
2022/07/30 14:59:18;;;;;;;;;11.67;7.00;;;;;29.81;39.96;101471.28;5096694;27;45666;-73
2022/07/30 15:01:43;;;;;;;;;6.00;6.00;;;;;29.78;39.51;101464.31;5096727;27;45575;-72
2022/07/30 15:04:09;;;;;;;;;8.33;6.67;;;;;29.80;40.28;101470.41;5097812;27;45706;-72
2022/07/30 15:06:36;;;;;;;;;5.67;5.67;;;;;29.77;40.02;101464.50;5096729;27;45341;-73
2022/07/30 15:09:02;;;;;;;;;10.00;8.67;;;;;29.79;39.55;101462.44;5096961;27;45292;-73
2022/07/30 15:11:27;;;;;;;;;7.00;7.00;;;;;29.78;39.54;101457.97;5097164;27;45379;-72
2022/07/30 15:13:53;;;;;;;;;6.00;6.00;;;;;29.77;40.32;101453.53;5096779;27;46090;-70
2022/07/30 15:16:18;;;;;;;;;6.33;6.33;;;;;29.79;40.15;101451.47;5096612;27;45622;-73
2022/07/30 15:18:44;;;;;;;;;8.67;5.00;;;;;29.80;40.31;101453.16;5096912;27;45444;-72
2022/07/30 15:21:11;;;;;;;;;8.33;7.33;;;;;29.78;40.09;101456.09;5094111;27;45538;-72
2022/07/30 15:23:36;;;;;;;;;8.00;7.67;;;;;29.79;39.76;101462.44;5096548;27;45400;-71
2022/07/30 15:26:02;;;;;;;;;12.33;9.67;;;;;29.81;40.28;101463.06;5096824;27;45442;-72
2022/07/30 15:28:27;;;;;;;;;8.33;7.00;;;;;29.81;39.96;101466.66;5097069;27;46011;-72
2022/07/30 15:30:52;;;;;;;;;9.33;7.33;;;;;29.81;39.84;101466.66;5097068;27;45457;-71
2022/07/30 15:33:18;;;;;;;;;6.00;6.00;;;;;29.82;39.95;101459.28;5095857;27;58080;-72
2022/07/30 15:35:43;;;;;;;;;8.33;6.67;;;;;29.87;40.28;101467.75;5096661;27;45472;-72
2022/07/30 15:38:08;;;;;;;;;10.00;7.00;;;;;29.91;40.35;101460.03;5096781;27;45347;-71
2022/07/30 15:40:34;;;;;;;;;4.00;3.33;;;;;29.94;40.14;101462.34;5095975;27;45428;-71
2022/07/30 15:42:59;;;;;;;;;8.67;7.33;;;;;29.91;40.50;101452.63;5096967;27;46214;-72
2022/07/30 15:45:24;;;;;;;;;7.33;7.33;;;;;29.91;40.45;101460.03;5096855;27;45454;-72
2022/07/30 15:47:50;;;;;;;;;5.33;5.00;;;;;29.94;39.84;101463.22;5096807;27;45405;-72
2022/07/30 15:50:16;;;;;;;;;8.67;8.00;;;;;29.93;39.75;101458.78;5100061;27;45366;-71
2022/07/30 15:52:42;;;;;;;;;7.67;5.67;;;;;29.89;39.80;101456.63;5095981;27;46344;-72
2022/07/30 15:55:09;;;;;;;;;7.67;7.67;;;;;29.93;40.40;101456.03;5096471;27;45410;-71
2022/07/30 15:57:34;;;;;;;;;6.33;4.67;;;;;29.93;40.13;101456.03;5095840;27;45808;-71
2022/07/30 15:59:59;;;;;;;;;5.67;5.33;;;;;29.90;40.26;101455.56;5093074;27;45322;-71
